Time;durP1;ratioP1;P1;durP2;ratioP2;P2;SDS_P1;SDS_P2;PMS_P1;PMS_P2;Temp;Humidity;BMP_temperature;BMP_pressure;BME280_temperature;BME280_humidity;BME280_pressure;Samples;Min_cycle;Max_cycle;Signal;HPM_P1;HPM_P2
2023/06/12 00:03:03;;;;;;;7.03;5.10;;;;;;;19.61;72.68;100476.06;8324556;28;20575;-61
2023/06/12 00:07:04;;;;;;;8.05;5.47;;;;;;;19.40;73.61;100464.09;8323402;28;20072;-61
2023/06/12 00:11:08;;;;;;;9.10;5.78;;;;;;;19.02;75.95;100476.38;8322663;28;20075;-62
2023/06/12 00:15:09;;;;;;;7.47;5.85;;;;;;;19.01;76.75;100480.16;8323746;28;20400;-61
2023/06/12 00:19:11;;;;;;;9.00;5.22;;;;;;;19.30;73.52;100471.81;8324194;28;20034;-62
2023/06/12 00:23:11;;;;;;;6.55;5.40;;;;;;;19.02;75.93;100465.41;8323971;28;20033;-62
2023/06/12 00:27:12;;;;;;;8.13;5.60;;;;;;;19.32;75.50;100477.09;8324024;28;20041;-62
2023/06/12 00:31:12;;;;;;;10.38;5.78;;;;;;;19.29;75.66;100481.09;8323601;28;20106;-62
2023/06/12 00:35:15;;;;;;;8.10;5.95;;;;;;;19.04;76.03;100474.28;8324288;28;20499;-62
2023/06/12 00:39:16;;;;;;;9.13;5.85;;;;;;;18.97;74.19;100473.34;8324053;28;20041;-62
2023/06/12 00:43:17;;;;;;;7.95;5.47;;;;;;;18.94;75.97;100473.75;8323387;28;20037;-62
2023/06/12 00:47:18;;;;;;;6.63;5.47;;;;;;;18.92;75.19;100478.59;8323523;28;20049;-62
2023/06/12 00:51:18;;;;;;;10.35;6.75;;;;;;;18.42;78.07;100478.63;8323291;28;20041;-62
2023/06/12 00:55:19;;;;;;;8.52;5.95;;;;;;;18.54;76.59;100471.63;8323565;28;20039;-61
2023/06/12 00:59:20;;;;;;;13.98;6.82;;;;;;;18.34;77.77;100473.25;8323332;28;20330;-62
2023/06/12 01:03:24;;;;;;;8.20;6.25;;;;;;;18.51;77.25;100472.00;8323395;28;20040;-62
2023/06/12 01:07:43;;;;;;;9.63;6.70;;;;;;;18.51;76.44;100472.00;8313555;28;20041;-62
2023/06/12 01:11:45;;;;;;;7.88;6.43;;;;;;;18.45;77.33;100467.28;8322871;28;20585;-61
2023/06/12 01:15:46;;;;;;;8.90;7.00;;;;;;;18.14;79.24;100469.41;8322833;28;20041;-62
2023/06/12 01:19:46;;;;;;;10.43;6.47;;;;;;;18.04;79.18;100468.84;8323282;28;20437;-61
2023/06/12 01:24:11;;;;;;;8.70;7.05;;;;;;;18.23;78.02;100462.78;8322383;28;20041;-62
2023/06/12 01:28:43;;;;;;;10.30;6.25;;;;;;;18.09;79.20;100460.94;8322475;28;20091;-61
2023/06/12 01:32:50;;;;;;;9.40;6.03;;;;;;;17.75;81.43;100455.16;8322420;28;20041;-61
2023/06/12 01:37:05;;;;;;;9.10;6.00;;;;;;;17.89;80.32;100458.94;8322772;28;20038;-61
2023/06/12 01:41:08;;;;;;;8.00;6.10;;;;;;;17.81;81.33;100456.31;8321878;28;20120;-62
2023/06/12 01:45:10;;;;;;;7.82;5.75;;;;;;;17.57;82.24;100447.31;8322294;28;20037;-62
2023/06/12 01:49:10;;;;;;;12.20;6.65;;;;;;;17.43;82.24;100458.25;8322152;28;20041;-61
2023/06/12 01:53:13;;;;;;;8.90;6.55;;;;;;;17.53;82.91;100447.88;8321031;28;20033;-61
2023/06/12 01:57:15;;;;;;;11.43;7.00;;;;;;;17.31;84.39;100449.63;8319531;28;20075;-61
2023/06/12 02:01:17;;;;;;;8.00;6.75;;;;;;;17.09;85.18;100449.66;8321022;28;20053;-60
2023/06/12 02:05:18;;;;;;;10.15;7.03;;;;;;;16.84;87.61;100445.44;8322618;28;20052;-61
2023/06/12 02:09:19;;;;;;;7.57;6.15;;;;;;;16.93;87.67;100441.59;8322401;28;20037;-60
2023/06/12 02:13:20;;;;;;;15.90;7.32;;;;;;;16.91;85.62;100449.13;8318614;28;20041;-60
2023/06/12 02:17:20;;;;;;;8.82;7.18;;;;;;;17.17;84.10;100446.88;8320721;28;20072;-61
2023/06/12 02:21:22;;;;;;;8.18;6.75;;;;;;;16.90;85.23;100451.00;8321730;28;20064;-60
2023/06/12 02:25:23;;;;;;;7.45;6.18;;;;;;;16.89;85.49;100453.91;8320341;28;20520;-60
2023/06/12 02:29:23;;;;;;;8.70;6.28;;;;;;;16.83;84.77;100443.72;8325061;28;20025;-60
2023/06/12 02:33:30;;;;;;;10.30;6.05;;;;;;;17.03;82.58;100450.38;8316726;28;20095;-61
2023/06/12 02:37:31;;;;;;;9.63;7.10;;;;;;;16.93;84.02;100450.63;8326949;28;20578;-61
2023/06/12 02:41:32;;;;;;;9.95;5.97;;;;;;;16.90;85.07;100458.34;8327654;28;20514;-59
2023/06/12 02:45:33;;;;;;;15.20;7.25;;;;;;;16.87;84.60;100464.19;8327816;28;20411;-59
2023/06/12 02:49:35;;;;;;;9.38;7.20;;;;;;;16.71;85.17;100467.03;8327477;28;20500;-59
2023/06/12 02:53:37;;;;;;;8.77;6.90;;;;;;;16.91;83.24;100460.03;8327336;28;20454;-59
2023/06/12 02:57:38;;;;;;;11.00;6.80;;;;;;;16.55;85.69;100467.97;8327454;28;20060;-59
2023/06/12 03:01:43;;;;;;;9.38;6.65;;;;;;;16.55;87.54;100467.13;8327129;28;20511;-64
2023/06/12 03:05:45;;;;;;;8.80;7.10;;;;;;;16.32;87.66;100463.47;8325447;28;20048;-64
2023/06/12 03:09:46;;;;;;;10.88;7.38;;;;;;;16.53;87.32;100452.81;8325616;28;20563;-65
2023/06/12 03:13:46;;;;;;;10.45;7.72;;;;;;;16.45;87.62;100461.06;8326806;28;20037;-65
2023/06/12 03:17:46;;;;;;;14.30;7.55;;;;;;;16.38;88.87;100462.78;8327104;28;20107;-65
2023/06/12 03:21:47;;;;;;;9.43;7.40;;;;;;;16.44;88.58;100464.81;8326492;28;20064;-65
2023/06/12 03:25:48;;;;;;;9.13;6.72;;;;;;;16.50;85.70;100469.56;8324248;28;20405;-64
2023/06/12 03:29:48;;;;;;;11.00;7.47;;;;;;;16.50;84.69;100469.56;8326166;28;20079;-64
2023/06/12 03:33:49;;;;;;;10.27;7.70;;;;;;;16.62;83.13;100468.13;8325262;28;20033;-65
2023/06/12 03:37:49;;;;;;;12.32;7.90;;;;;;;16.63;82.79;100476.13;8327105;28;20072;-65
2023/06/12 03:41:56;;;;;;;10.65;7.50;;;;;;;16.66;82.85;100477.63;8292095;28;20445;-64
2023/06/12 03:46:03;;;;;;;11.18;8.43;;;;;;;16.69;83.18;100478.16;8318000;28;20136;-65
2023/06/12 03:50:07;;;;;;;14.85;8.40;;;;;;;16.65;82.82;100478.69;8325841;28;20381;-61
2023/06/12 03:54:10;;;;;;;13.10;8.93;;;;;;;16.67;83.99;100477.47;8325487;28;20033;-60
2023/06/12 03:58:16;;;;;;;11.23;8.63;;;;;;;16.82;84.07;100485.72;8325555;28;20116;-60
2023/06/12 04:02:16;;;;;;;12.35;8.48;;;;;;;16.87;84.39;100486.84;8311601;28;20037;-60
2023/06/12 04:06:17;;;;;;;12.35;8.73;;;;;;;16.74;84.71;100488.53;8324618;28;20521;-60
2023/06/12 04:10:18;;;;;;;11.40;8.32;;;;;;;16.92;84.88;100486.31;8320241;28;20092;-60
2023/06/12 04:14:18;;;;;;;12.50;8.40;;;;;;;17.02;83.31;100486.94;8334068;28;20381;-60
2023/06/12 04:18:19;;;;;;;10.15;7.95;;;;;;;17.03;81.71;100494.09;8324047;28;20045;-60
2023/06/12 04:22:20;;;;;;;12.18;8.07;;;;;;;17.04;82.35;100503.97;8316387;28;20041;-64
2023/06/12 04:26:21;;;;;;;12.93;8.02;;;;;;;17.18;81.40;100492.28;8314952;28;20052;-64
2023/06/12 04:30:21;;;;;;;10.80;7.78;;;;;;;17.27;81.15;100496.63;8320088;28;20524;-65
2023/06/12 04:34:24;;;;;;;16.65;8.40;;;;;;;17.22;81.51;100488.13;8321645;28;20042;-65
2023/06/12 04:38:25;;;;;;;19.38;8.55;;;;;;;17.35;83.63;100493.81;8294940;28;20042;-64
2023/06/12 04:42:26;;;;;;;10.60;7.82;;;;;;;17.80;82.68;100493.75;8314722;28;20084;-64
2023/06/12 04:46:28;;;;;;;14.50;8.50;;;;;;;17.83;80.34;100492.50;8315918;28;20046;-64
2023/06/12 04:50:30;;;;;;;15.52;8.10;;;;;;;17.97;81.34;100499.88;8314995;28;20124;-63
2023/06/12 04:54:35;;;;;;;13.50;7.43;;;;;;;18.11;80.76;100497.13;8318556;28;20041;-64
2023/06/12 04:58:41;;;;;;;12.23;7.43;;;;;;;18.27;78.51;100499.66;8321041;28;20041;-64
2023/06/12 05:02:44;;;;;;;12.93;7.90;;;;;;;18.43;78.38;100493.19;8313641;28;20041;-60
2023/06/12 05:06:45;;;;;;;10.65;7.45;;;;;;;18.50;78.69;100492.22;8327586;28;20093;-64
2023/06/12 05:10:45;;;;;;;10.93;7.78;;;;;;;18.60;79.43;100492.75;8285902;28;20476;-64
2023/06/12 05:14:46;;;;;;;19.52;8.38;;;;;;;18.81;78.23;100495.53;8283316;28;20475;-64
2023/06/12 05:18:46;;;;;;;13.52;7.50;;;;;;;19.06;78.41;100505.06;8287417;28;20412;-64
2023/06/12 05:22:47;;;;;;;16.05;8.35;;;;;;;19.35;77.28;100504.97;8301859;28;20087;-64
2023/06/12 05:26:50;;;;;;;11.95;7.13;;;;;;;19.35;76.25;100510.47;8319778;28;20044;-64
2023/06/12 05:30:50;;;;;;;13.88;7.75;;;;;;;19.65;76.76;100502.91;8307737;28;20124;-64
2023/06/12 05:34:52;;;;;;;12.13;7.35;;;;;;;20.13;75.22;100506.63;8321264;28;20029;-64
2023/06/12 05:38:53;;;;;;;10.30;8.25;;;;;;;20.30;75.37;100488.75;8319712;28;20041;-64
2023/06/12 05:42:56;;;;;;;17.08;7.53;;;;;;;20.33;74.57;100493.84;8319815;28;20037;-63
2023/06/12 05:46:57;;;;;;;12.07;7.00;;;;;;;20.74;72.47;100492.75;8305497;28;20404;-64
2023/06/12 05:50:58;;;;;;;11.30;6.68;;;;;;;21.05;71.04;100501.31;8286958;28;20067;-64
2023/06/12 05:54:59;;;;;;;15.00;6.72;;;;;;;21.32;70.54;100491.22;8315247;28;20083;-63
2023/06/12 05:59:00;;;;;;;9.90;7.05;;;;;;;21.25;66.26;100501.34;8294645;28;20041;-64
2023/06/12 06:03:04;;;;;;;12.48;7.18;;;;;;;21.67;66.63;100495.44;8303124;28;20091;-64
2023/06/12 06:07:07;;;;;;;11.10;6.72;;;;;;;22.00;64.19;100496.28;8307515;28;20038;-64
2023/06/12 06:11:09;;;;;;;7.22;5.85;;;;;;;22.05;63.66;100499.22;8319266;28;20084;-64
2023/06/12 06:15:10;;;;;;;10.13;6.97;;;;;;;22.14;62.24;100502.63;8328409;28;20029;-64
2023/06/12 06:19:10;;;;;;;10.82;6.72;;;;;;;21.91;61.74;100508.59;8328816;28;20041;-64
2023/06/12 06:23:12;;;;;;;16.33;6.78;;;;;;;21.97;64.25;100513.25;8326875;28;20380;-64
2023/06/12 06:27:13;;;;;;;14.07;7.55;;;;;;;21.87;64.15;100510.09;8328635;28;20041;-64
2023/06/12 06:31:14;;;;;;;13.02;7.78;;;;;;;22.28;64.46;100510.63;8327910;28;20488;-64
2023/06/12 06:35:15;;;;;;;15.70;6.78;;;;;;;22.58;64.51;100517.34;8328332;28;20414;-64
2023/06/12 06:39:15;;;;;;;19.83;7.20;;;;;;;22.96;63.28;100514.59;8327360;28;20400;-64
2023/06/12 06:43:16;;;;;;;15.75;6.97;;;;;;;23.01;64.03;100509.25;8325650;28;20099;-64
2023/06/12 06:47:22;;;;;;;13.10;7.03;;;;;;;23.41;64.10;100512.63;8327061;28;20099;-61
2023/06/12 06:51:23;;;;;;;15.20;7.43;;;;;;;23.77;64.09;100513.63;8341623;28;20065;-61
2023/06/12 06:55:24;;;;;;;17.45;7.22;;;;;;;23.99;61.90;100506.63;8327609;28;20033;-61
2023/06/12 06:59:24;;;;;;;12.02;6.20;;;;;;;24.34;60.23;100509.66;8323800;28;20060;-61
2023/06/12 07:03:27;;;;;;;13.73;6.28;;;;;;;24.64;61.96;100516.13;8325704;28;20052;-61
2023/06/12 07:07:29;;;;;;;12.60;6.30;;;;;;;25.02;60.26;100509.25;8326826;28;20033;-61
2023/06/12 07:11:31;;;;;;;7.97;4.82;;;;;;;25.31;58.44;100504.75;8326327;28;20044;-61
2023/06/12 07:15:31;;;;;;;9.70;5.50;;;;;;;25.45;57.09;100511.81;8325725;28;20564;-61
2023/06/12 07:19:32;;;;;;;11.15;5.25;;;;;;;25.48;56.87;100507.72;8326698;28;20167;-61
2023/06/12 07:23:33;;;;;;;6.60;5.18;;;;;;;25.59;55.12;100496.69;8325592;28;20107;-61
2023/06/12 07:27:33;;;;;;;9.80;5.57;;;;;;;25.56;55.75;100502.69;8325135;28;20037;-61
2023/06/12 07:31:34;;;;;;;11.52;5.43;;;;;;;25.93;54.45;100506.94;8326037;28;20045;-61
2023/06/12 07:35:35;;;;;;;6.50;5.35;;;;;;;25.65;54.67;100503.19;8324625;28;20083;-61
2023/06/12 07:39:37;;;;;;;12.70;6.57;;;;;;;25.92;55.09;100502.47;8325221;28;20118;-61
2023/06/12 07:43:40;;;;;;;8.90;5.78;;;;;;;26.32;54.47;100500.66;8325847;28;20044;-59
2023/06/12 07:47:42;;;;;;;10.93;5.50;;;;;;;26.31;54.00;100498.97;8324986;28;20041;-59
2023/06/12 07:51:43;;;;;;;7.07;5.72;;;;;;;26.66;55.08;100491.44;8325352;28;20045;-59
2023/06/12 07:55:44;;;;;;;7.53;5.50;;;;;;;26.76;54.17;100491.69;8307806;28;20047;-59
2023/06/12 07:59:45;;;;;;;12.18;5.57;;;;;;;27.18;54.86;100496.94;8324413;28;20041;-59
2023/06/12 08:03:47;;;;;;;11.93;5.93;;;;;;;26.90;52.30;100483.06;8325236;28;20041;-59
2023/06/12 08:07:49;;;;;;;6.20;4.72;;;;;;;27.06;52.37;100479.47;8323459;28;20072;-59
2023/06/12 08:11:50;;;;;;;6.45;5.38;;;;;;;26.86;53.38;100490.19;8324015;28;20040;-64
2023/06/12 08:15:51;;;;;;;9.98;5.68;;;;;;;27.33;53.67;100492.53;8324304;28;20124;-64
2023/06/12 08:19:51;;;;;;;10.88;6.10;;;;;;;27.18;52.99;100491.38;8324528;28;20646;-64
2023/06/12 08:23:53;;;;;;;8.77;5.38;;;;;;;27.22;53.28;100492.53;8324572;28;20044;-64
2023/06/12 08:27:56;;;;;;;11.18;5.68;;;;;;;27.18;52.29;100488.59;8322925;28;20069;-60
2023/06/12 08:31:56;;;;;;;12.70;5.50;;;;;;;27.42;52.21;100484.63;8323939;28;20044;-59
2023/06/12 08:35:59;;;;;;;6.72;4.88;;;;;;;27.66;52.15;100486.16;8324338;28;20061;-60
2023/06/12 08:40:00;;;;;;;8.87;6.00;;;;;;;27.63;52.29;100475.56;8323799;28;20152;-59
2023/06/12 08:44:01;;;;;;;9.52;5.10;;;;;;;28.04;52.29;100472.34;8324112;28;20072;-59
2023/06/12 08:48:15;;;;;;;5.97;5.28;;;;;;;27.87;51.47;100477.09;8323450;28;20496;-59
2023/06/12 08:52:17;;;;;;;8.85;5.57;;;;;;;27.91;52.27;100470.78;8323337;28;20132;-59
2023/06/12 08:56:20;;;;;;;8.20;5.32;;;;;;;28.08;51.39;100470.72;8323479;28;20041;-59
2023/06/12 09:00:21;;;;;;;9.13;5.22;;;;;;;28.17;51.66;100460.84;8323175;28;20041;-59
2023/06/12 09:04:31;;;;;;;8.57;5.53;;;;;;;28.37;52.49;100477.81;8321516;28;20625;-59
2023/06/12 09:08:34;;;;;;;9.23;6.32;;;;;;;28.46;50.90;100465.19;8320402;28;20132;-59
2023/06/12 09:12:35;;;;;;;8.88;6.07;;;;;;;29.01;50.54;100467.78;8323685;28;20047;-59
2023/06/12 09:16:35;;;;;;;5.60;5.07;;;;;;;29.09;49.45;100470.16;8322157;28;20045;-59
2023/06/12 09:20:36;;;;;;;8.77;5.57;;;;;;;29.22;50.80;100465.00;8323357;28;20034;-60
2023/06/12 09:24:38;;;;;;;12.98;6.05;;;;;;;29.13;51.21;100461.00;8323334;28;20083;-59
2023/06/12 09:28:42;;;;;;;8.60;5.82;;;;;;;29.40;50.06;100464.59;8317041;28;20136;-59
2023/06/12 09:32:44;;;;;;;10.40;5.90;;;;;;;29.94;49.93;100457.81;8350111;28;20091;-60
2023/06/12 09:36:45;;;;;;;7.35;5.18;;;;;;;29.89;50.82;100463.34;8322827;28;20037;-59
2023/06/12 09:40:55;;;;;;;9.15;5.15;;;;;;;29.89;50.18;100460.56;8322854;28;20040;-60
2023/06/12 09:44:57;;;;;;;12.07;5.60;;;;;;;29.90;49.17;100459.47;8311411;28;20415;-60
2023/06/12 09:48:58;;;;;;;6.38;5.57;;;;;;;29.81;50.09;100458.28;8322849;28;20095;-60
2023/06/12 09:52:59;;;;;;;7.05;5.00;;;;;;;29.96;49.80;100466.78;8322775;28;20042;-62
2023/06/12 09:57:05;;;;;;;8.43;5.20;;;;;;;30.47;48.42;100456.78;8322989;28;20095;-62
2023/06/12 10:01:07;;;;;;;7.15;5.10;;;;;;;31.21;47.27;100463.75;8322843;28;20042;-62
2023/06/12 10:05:17;;;;;;;5.63;4.53;;;;;;;31.66;45.31;100460.16;8322697;28;20518;-62
2023/06/12 10:09:19;;;;;;;10.30;4.90;;;;;;;32.48;43.09;100457.84;8322405;28;20045;-62
2023/06/12 10:13:20;;;;;;;5.03;4.45;;;;;;;33.74;40.83;100447.53;8335855;28;20041;-62
2023/06/12 10:17:22;;;;;;;6.18;3.95;;;;;;;34.43;39.83;100457.53;8331433;28;20041;-62
2023/06/12 10:21:22;;;;;;;9.00;3.97;;;;;;;35.47;38.91;100457.25;8322434;28;20138;-62
2023/06/12 10:25:24;;;;;;;5.20;3.80;;;;;;;35.61;37.23;100453.34;8304295;28;20100;-62
2023/06/12 10:29:30;;;;;;;5.05;4.13;;;;;;;35.23;39.08;100456.47;8321677;28;20038;-63
2023/06/12 10:33:30;;;;;;;8.15;4.05;;;;;;;35.86;37.20;100452.13;8322502;28;20526;-64
2023/06/12 10:37:37;;;;;;;4.43;4.03;;;;;;;35.85;37.33;100450.44;8322323;28;20103;-64
2023/06/12 10:41:37;;;;;;;6.50;4.13;;;;;;;36.32;36.45;100444.50;8322205;28;20041;-64
2023/06/12 10:45:38;;;;;;;6.20;4.47;;;;;;;36.01;36.14;100428.47;8322121;28;20534;-64
2023/06/12 10:50:00;;;;;;;4.57;4.10;;;;;;;35.70;36.55;100440.25;8323693;28;20646;-64
2023/06/12 10:54:03;;;;;;;4.35;3.95;;;;;;;35.80;35.91;100438.41;8328010;28;20642;-64
2023/06/12 10:58:07;;;;;;;5.70;4.15;;;;;;;35.80;36.15;100428.00;8327567;28;20381;-64
2023/06/12 11:02:08;;;;;;;5.40;3.95;;;;;;;36.32;36.44;100436.06;8326725;28;20040;-64
2023/06/12 11:06:16;;;;;;;4.07;3.58;;;;;;;36.74;35.87;100432.91;8327386;28;20065;-65
2023/06/12 11:10:17;;;;;;;6.03;4.07;;;;;;;36.86;34.71;100419.13;8326203;28;20040;-65
2023/06/12 11:14:25;;;;;;;4.25;3.83;;;;;;;36.76;35.28;100430.63;8327614;28;20491;-65
2023/06/12 11:18:26;;;;;;;6.60;4.43;;;;;;;35.91;35.93;100435.13;8323222;28;20459;-64
2023/06/12 11:22:26;;;;;;;8.23;3.90;;;;;;;36.02;35.52;100427.31;8326795;28;20041;-64
2023/06/12 11:26:27;;;;;;;4.97;4.32;;;;;;;35.77;36.69;100424.94;8326928;28;20037;-65
2023/06/12 11:30:27;;;;;;;4.55;4.03;;;;;;;35.70;36.70;100423.38;8328573;28;20041;-60
2023/06/12 11:34:35;;;;;;;4.77;4.20;;;;;;;36.73;36.27;100422.78;8330110;28;20026;-59
2023/06/12 11:38:36;;;;;;;5.43;4.22;;;;;;;37.65;34.67;100411.06;8326553;28;20284;-60
2023/06/12 11:42:38;;;;;;;5.10;4.60;;;;;;;37.68;37.02;100422.53;8341058;28;20044;-60
2023/06/12 11:46:38;;;;;;;8.32;4.50;;;;;;;33.95;38.96;100414.53;8326054;28;20054;-60
2023/06/12 11:50:39;;;;;;;4.77;4.37;;;;;;;35.32;37.50;100418.09;8325356;28;20045;-60
2023/06/12 11:55:02;;;;;;;7.38;4.80;;;;;;;35.45;38.32;100431.41;8325927;28;20503;-59
2023/06/12 11:59:02;;;;;;;6.03;4.88;;;;;;;36.05;36.42;100407.84;8295931;28;20041;-60
2023/06/12 12:03:03;;;;;;;4.57;4.17;;;;;;;36.37;37.57;100407.75;8291891;28;20086;-59
2023/06/12 12:07:04;;;;;;;6.18;4.68;;;;;;;36.09;36.90;100411.69;8291645;28;20281;-60
2023/06/12 12:11:16;;;;;;;5.85;4.70;;;;;;;34.26;38.55;100407.44;8292010;28;20041;-60
2023/06/12 12:15:20;;;;;;;9.98;4.50;;;;;;;32.64;40.88;100411.84;8292226;28;20038;-60
2023/06/12 12:19:26;;;;;;;5.18;4.70;;;;;;;32.09;40.04;100392.44;8291996;28;20064;-60
2023/06/12 12:23:27;;;;;;;5.88;4.53;;;;;;;31.30;41.86;100397.84;8324183;28;20125;-61
2023/06/12 12:27:27;;;;;;;5.33;4.80;;;;;;;31.11;41.65;100395.81;8320749;28;20037;-61
2023/06/12 12:31:28;;;;;;;5.00;4.60;;;;;;;30.95;41.23;100392.16;8320742;28;20338;-60
2023/06/12 12:35:28;;;;;;;6.47;4.50;;;;;;;31.19;42.17;100392.50;8321004;28;20452;-60
2023/06/12 12:39:29;;;;;;;5.50;5.00;;;;;;;31.09;41.03;100387.72;8321845;28;20068;-60
2023/06/12 12:43:29;;;;;;;5.50;4.55;;;;;;;31.35;40.11;100388.63;8321700;28;20033;-61
2023/06/12 12:47:30;;;;;;;6.30;5.28;;;;;;;31.36;41.35;100387.47;8324457;28;20049;-60
2023/06/12 12:51:30;;;;;;;8.05;4.90;;;;;;;31.34;42.67;100384.13;8320335;28;20115;-62
2023/06/12 12:55:32;;;;;;;6.73;4.80;;;;;;;31.45;41.03;100371.81;8319848;28;20176;-61
2023/06/12 12:59:32;;;;;;;5.68;4.55;;;;;;;31.22;40.89;100375.16;8318777;28;20294;-60
2023/06/12 13:03:36;;;;;;;5.10;4.60;;;;;;;31.25;40.43;100363.44;8320482;28;20045;-60
2023/06/12 13:07:38;;;;;;;7.03;4.88;;;;;;;31.21;40.08;100367.88;8321362;28;20276;-60
2023/06/12 13:11:39;;;;;;;4.78;4.38;;;;;;;31.29;40.11;100358.97;8318056;28;20069;-60
2023/06/12 13:15:41;;;;;;;6.00;5.00;;;;;;;31.21;42.13;100357.56;8318446;28;20099;-62
2023/06/12 13:19:41;;;;;;;7.28;4.82;;;;;;;30.96;42.32;100359.50;8320804;28;20047;-60
2023/06/12 13:23:42;;;;;;;6.30;4.57;;;;;;;30.80;42.35;100358.66;8316582;28;20037;-60
2023/06/12 13:27:42;;;;;;;7.38;5.18;;;;;;;31.02;42.68;100359.22;8287531;28;20512;-61
2023/06/12 13:31:43;;;;;;;8.00;5.28;;;;;;;30.97;42.63;100361.16;8287796;28;20045;-60
2023/06/12 13:35:46;;;;;;;7.68;5.32;;;;;;;30.74;42.46;100356.13;8287835;28;20211;-60
2023/06/12 13:39:47;;;;;;;11.53;4.80;;;;;;;30.76;43.63;100342.72;8298337;28;20044;-60
2023/06/12 13:43:47;;;;;;;7.97;5.15;;;;;;;31.10;44.18;100349.47;8325039;28;20037;-60
2023/06/12 13:47:48;;;;;;;6.72;4.32;;;;;;;30.94;41.59;100351.38;8320114;28;20038;-63
2023/06/12 13:51:48;;;;;;;8.52;5.28;;;;;;;30.82;42.22;100341.59;8319204;28;20121;-63
2023/06/12 13:55:49;;;;;;;7.40;4.97;;;;;;;30.57;42.50;100338.72;8311876;28;20300;-63
2023/06/12 13:59:49;;;;;;;9.57;6.00;;;;;;;30.57;43.54;100334.00;8287958;28;20141;-63
2023/06/12 14:03:53;;;;;;;5.82;5.22;;;;;;;30.77;41.68;100344.38;8283477;28;20049;-65
2023/06/12 14:07:53;;;;;;;7.20;5.57;;;;;;;30.83;43.09;100337.69;8293213;28;20069;-64
2023/06/12 14:11:54;;;;;;;7.03;5.28;;;;;;;30.72;41.26;100336.81;8318817;28;20071;-62
2023/06/12 14:15:55;;;;;;;5.97;5.35;;;;;;;30.63;40.94;100337.63;8319605;28;20033;-63
2023/06/12 14:19:56;;;;;;;6.55;5.35;;;;;;;30.54;40.76;100333.69;8315880;28;20618;-64
2023/06/12 14:23:58;;;;;;;6.03;5.53;;;;;;;30.61;41.31;100332.31;8319473;28;20034;-64
2023/06/12 14:28:00;;;;;;;6.03;5.43;;;;;;;30.99;41.03;100317.03;8322517;28;20042;-64
2023/06/12 14:32:00;;;;;;;8.90;5.65;;;;;;;31.04;41.00;100322.63;8324542;28;20045;-64
2023/06/12 14:36:01;;;;;;;6.77;6.03;;;;;;;31.15;41.70;100333.53;8325341;28;20042;-64
2023/06/12 14:40:02;;;;;;;7.18;5.88;;;;;;;31.13;41.72;100320.97;8325287;28;20275;-64
2023/06/12 14:44:02;;;;;;;8.93;5.57;;;;;;;30.69;40.63;100316.97;8324543;28;20038;-64
2023/06/12 14:48:03;;;;;;;6.50;5.47;;;;;;;30.67;41.76;100314.47;8325118;28;20037;-65
2023/06/12 14:52:05;;;;;;;7.20;5.38;;;;;;;30.46;40.84;100304.38;8324134;28;20511;-65
2023/06/12 14:56:05;;;;;;;7.38;6.13;;;;;;;30.56;40.78;100309.13;8323083;28;20739;-60
2023/06/12 15:00:08;;;;;;;7.87;5.87;;;;;;;30.72;41.61;100303.31;8324425;28;20471;-65
2023/06/12 15:04:09;;;;;;;6.57;5.88;;;;;;;30.76;40.60;100306.44;8322030;28;20591;-66
2023/06/12 15:08:09;;;;;;;8.60;5.60;;;;;;;30.62;40.10;100302.44;8320847;28;20136;-63
2023/06/12 15:12:12;;;;;;;6.55;5.50;;;;;;;30.54;40.02;100289.03;8320181;28;20037;-62
2023/06/12 15:16:12;;;;;;;6.97;6.22;;;;;;;30.46;38.83;100286.81;8319293;28;20041;-63
2023/06/12 15:20:13;;;;;;;6.95;5.65;;;;;;;30.56;40.04;100292.41;8319666;28;20080;-63
2023/06/12 15:24:13;;;;;;;9.13;6.10;;;;;;;30.63;40.62;100287.38;8321777;28;20049;-58
2023/06/12 15:28:13;;;;;;;9.90;5.93;;;;;;;30.82;40.17;100291.31;8321513;28;20045;-58
2023/06/12 15:32:14;;;;;;;6.18;5.57;;;;;;;30.69;38.13;100287.13;8321077;28;20284;-58
2023/06/12 15:36:15;;;;;;;9.70;5.75;;;;;;;30.64;38.75;100284.31;8321669;28;20044;-58
2023/06/12 15:40:15;;;;;;;10.20;6.30;;;;;;;30.72;37.63;100280.13;8320874;28;20068;-63
2023/06/12 15:44:16;;;;;;;7.07;5.75;;;;;;;30.61;37.23;100272.88;8321410;28;20099;-63
2023/06/12 15:48:16;;;;;;;10.10;6.40;;;;;;;30.72;37.18;100268.97;8321290;28;20533;-63
2023/06/12 15:52:17;;;;;;;5.28;4.82;;;;;;;30.57;38.13;100271.72;8320817;28;20124;-63
2023/06/12 15:56:18;;;;;;;11.38;6.30;;;;;;;30.62;37.98;100268.97;8341252;28;20045;-63
2023/06/12 16:00:18;;;;;;;10.27;5.40;;;;;;;30.73;37.96;100265.06;8315425;28;20497;-63
2023/06/12 16:04:21;;;;;;;8.95;6.20;;;;;;;30.78;39.42;100262.28;8319613;28;20423;-63
2023/06/12 16:08:21;;;;;;;6.85;5.80;;;;;;;30.56;38.85;100267.28;8310427;28;20045;-64
2023/06/12 16:12:21;;;;;;;10.10;6.00;;;;;;;30.62;38.23;100269.81;8317392;28;20559;-64
2023/06/12 16:16:22;;;;;;;6.35;5.75;;;;;;;30.54;37.51;100261.13;8312888;28;20153;-66
2023/06/12 16:20:23;;;;;;;15.65;7.28;;;;;;;30.52;38.60;100253.03;8315149;28;20338;-65
2023/06/12 16:24:23;;;;;;;9.23;6.85;;;;;;;30.54;38.30;100255.53;8315514;28;20041;-65
2023/06/12 16:28:24;;;;;;;6.88;6.18;;;;;;;30.41;38.11;100245.78;8311881;28;20042;-65
2023/06/12 16:32:24;;;;;;;7.77;6.10;;;;;;;30.55;38.82;100248.84;8310892;28;20554;-63
2023/06/12 16:36:25;;;;;;;7.60;5.85;;;;;;;30.42;38.98;100245.50;8317497;28;20805;-65
2023/06/12 16:40:26;;;;;;;7.47;5.85;;;;;;;30.37;40.00;100244.63;8315997;28;20397;-64
2023/06/12 16:44:28;;;;;;;7.63;5.85;;;;;;;30.24;39.32;100234.00;8318116;28;20045;-64
2023/06/12 16:48:28;;;;;;;7.03;5.97;;;;;;;30.17;39.69;100239.84;8313334;28;20041;-65
2023/06/12 16:52:29;;;;;;;7.60;6.20;;;;;;;30.17;38.89;100236.19;8312225;28;20124;-64
2023/06/12 16:56:29;;;;;;;7.25;6.20;;;;;;;30.20;39.77;100233.75;8318196;28;20045;-64
2023/06/12 17:00:30;;;;;;;7.22;6.45;;;;;;;30.13;39.39;100233.09;8317902;28;20037;-65
2023/06/12 17:04:30;;;;;;;9.02;6.30;;;;;;;29.95;39.88;100230.81;8318254;28;20471;-65
2023/06/12 17:08:31;;;;;;;7.45;6.45;;;;;;;29.99;38.92;100237.56;8317761;28;20045;-64
2023/06/12 17:12:31;;;;;;;6.97;6.28;;;;;;;29.98;39.90;100235.84;8317672;28;20072;-65
2023/06/12 17:16:32;;;;;;;7.95;6.47;;;;;;;29.90;40.67;100244.75;8318778;28;20063;-65
2023/06/12 17:20:32;;;;;;;6.30;5.70;;;;;;;29.79;40.12;100243.03;8317899;28;20029;-65
2023/06/12 17:24:33;;;;;;;10.05;6.30;;;;;;;29.65;40.46;100241.03;8317589;28;20287;-64
2023/06/12 17:28:33;;;;;;;8.63;6.70;;;;;;;29.65;40.94;100236.31;8300360;28;20089;-65
2023/06/12 17:32:34;;;;;;;7.47;6.10;;;;;;;29.48;40.28;100232.81;8284890;28;20287;-65
2023/06/12 17:36:34;;;;;;;9.52;5.57;;;;;;;29.37;40.84;100233.91;8284992;28;20467;-66
2023/06/12 17:40:35;;;;;;;8.37;6.27;;;;;;;29.21;41.75;100232.13;8301757;28;20033;-63
2023/06/12 17:44:40;;;;;;;7.53;6.15;;;;;;;29.24;41.10;100234.34;8332221;28;20312;-63
2023/06/12 17:48:41;;;;;;;6.72;6.13;;;;;;;29.11;42.13;100232.06;8317129;28;20091;-64
2023/06/12 17:52:41;;;;;;;9.88;6.10;;;;;;;29.13;41.20;100226.22;8316741;28;20124;-57
2023/06/12 17:56:41;;;;;;;8.30;6.18;;;;;;;29.07;41.77;100224.50;8317253;28;20439;-57
2023/06/12 18:00:43;;;;;;;7.10;5.80;;;;;;;28.89;42.74;100213.75;8322320;28;20415;-58
2023/06/12 18:04:43;;;;;;;9.25;6.07;;;;;;;28.92;42.86;100218.78;8323355;28;20057;-58
2023/06/12 18:08:44;;;;;;;8.73;5.68;;;;;;;28.81;43.03;100217.88;8321760;28;20060;-58
2023/06/12 18:12:44;;;;;;;6.72;5.78;;;;;;;28.82;41.33;100224.28;8323002;28;20415;-58
2023/06/12 18:16:45;;;;;;;9.73;6.43;;;;;;;28.66;42.09;100223.31;8323887;28;20476;-59
2023/06/12 18:20:45;;;;;;;8.75;6.43;;;;;;;28.56;43.17;100231.59;8296611;28;20541;-58
2023/06/12 18:24:46;;;;;;;11.32;6.38;;;;;;;28.46;43.21;100223.16;8312774;28;20535;-59
2023/06/12 18:28:46;;;;;;;9.07;6.30;;;;;;;28.33;43.22;100215.22;8319704;28;20103;-59
2023/06/12 18:32:47;;;;;;;8.15;6.10;;;;;;;28.37;42.41;100219.13;8334698;28;20061;-59
2023/06/12 18:36:47;;;;;;;7.68;6.05;;;;;;;28.21;43.08;100211.75;8299382;28;20041;-59
2023/06/12 18:40:48;;;;;;;7.57;6.60;;;;;;;28.12;43.03;100227.22;8307580;28;20041;-59